createdAt,value
2018-11-21T00:00:23.404Z,86.74
2018-11-21T00:02:50.884Z,86.83
2018-11-21T00:05:18.812Z,87.13
2018-11-21T00:07:46.327Z,86.94
2018-11-21T00:10:13.884Z,86.28
2018-11-21T00:12:49.484Z,86.16
2018-11-21T00:15:16.984Z,86.68
2018-11-21T00:17:44.484Z,86.56
2018-11-21T00:20:12.032Z,86.99
2018-11-21T00:22:39.464Z,86.81
2018-11-21T00:25:07.104Z,86.48
2018-11-21T00:27:34.505Z,86.81
2018-11-21T00:30:02.133Z,86.64
2018-11-21T00:32:32.024Z,87.01
2018-11-21T00:34:59.580Z,86.73
2018-11-21T00:37:27.657Z,87.02
2018-11-21T00:39:55.125Z,86.65
2018-11-21T00:42:22.623Z,87.04
2018-11-21T00:44:50.089Z,86.66
2018-11-21T00:47:17.744Z,86.63
2018-11-21T00:49:45.324Z,86.02
2018-11-21T00:52:12.884Z,86.30
2018-11-21T00:54:40.304Z,85.89
2018-11-21T00:57:08.044Z,85.60
2018-11-21T00:59:35.524Z,85.70
2018-11-21T01:02:03.264Z,85.82
2018-11-21T01:04:30.728Z,85.39
2018-11-21T01:06:58.332Z,85.80
2018-11-21T01:09:25.794Z,85.24
2018-11-21T01:11:53.332Z,85.75
2018-11-21T01:14:21.724Z,85.74
2018-11-21T01:16:49.384Z,85.73
2018-11-21T01:19:16.894Z,85.44
2018-11-21T01:21:44.364Z,85.88
2018-11-21T01:24:11.904Z,86.25
2018-11-21T01:26:39.392Z,86.51
2018-11-21T01:29:06.907Z,86.78
2018-11-21T01:31:34.392Z,87.10
2018-11-21T01:34:02.412Z,87.41
2018-11-21T01:36:29.884Z,87.46
2018-11-21T01:38:57.836Z,86.93
2018-11-21T01:41:25.412Z,85.47
2018-11-21T01:43:52.964Z,85.86
2018-11-21T01:46:20.692Z,85.82
2018-11-21T01:48:48.224Z,86.18
2018-11-21T01:51:15.684Z,86.48
2018-11-21T01:53:43.304Z,86.29
2018-11-21T01:56:10.726Z,86.42
2018-11-21T01:58:38.206Z,86.81
2018-11-21T02:01:05.684Z,86.87
2018-11-21T02:03:33.164Z,86.72
2018-11-21T02:06:00.724Z,86.12
2018-11-21T02:08:28.204Z,86.02
2018-11-21T02:10:55.704Z,85.85
2018-11-21T02:13:23.184Z,85.40
2018-11-21T02:15:50.604Z,85.44
2018-11-21T02:18:17.985Z,85.55
2018-11-21T02:20:45.565Z,85.66
2018-11-21T02:23:12.964Z,86.04
2018-11-21T02:25:40.447Z,85.99
2018-11-21T02:28:07.904Z,85.12
2018-11-21T02:30:35.405Z,85.03
2018-11-21T02:33:02.807Z,84.49
2018-11-21T02:35:30.304Z,84.53
2018-11-21T02:37:57.867Z,85.40
2018-11-21T02:40:25.524Z,85.48
2018-11-21T02:42:52.924Z,84.34
2018-11-21T02:45:20.607Z,84.80
2018-11-21T02:47:48.033Z,84.84
2018-11-21T02:50:15.492Z,84.83
2018-11-21T02:52:42.971Z,85.73
2018-11-21T02:55:10.445Z,85.20
2018-11-21T02:57:37.892Z,85.64
2018-11-21T03:00:14.084Z,85.57
2018-11-21T03:02:41.525Z,84.03
2018-11-21T03:05:08.992Z,83.59
2018-11-21T03:07:36.819Z,83.08
2018-11-21T03:10:05.906Z,82.75
2018-11-21T03:12:33.405Z,82.25
2018-11-21T03:15:00.837Z,82.57
2018-11-21T03:17:28.336Z,82.25
2018-11-21T03:19:55.824Z,82.75
2018-11-21T03:22:23.344Z,82.43
2018-11-21T03:24:50.804Z,82.87
2018-11-21T03:27:18.284Z,82.91
2018-11-21T03:29:45.783Z,83.27
2018-11-21T03:32:13.275Z,83.10
2018-11-21T03:34:40.664Z,83.40
2018-11-21T03:37:08.205Z,83.73
2018-11-21T03:39:35.664Z,82.87
2018-11-21T03:42:03.188Z,83.40
2018-11-21T03:44:30.605Z,83.09
2018-11-21T03:46:58.128Z,83.06
2018-11-21T03:49:25.612Z,83.09
2018-11-21T03:51:53.112Z,81.62
2018-11-21T03:54:21.785Z,82.15
2018-11-21T03:56:49.292Z,82.58
2018-11-21T03:59:16.713Z,82.88
2018-11-21T04:01:44.183Z,82.95
2018-11-21T04:04:11.645Z,82.97
2018-11-21T04:06:39.664Z,82.95
2018-11-21T04:09:09.012Z,82.77
2018-11-21T04:11:36.465Z,83.10
2018-11-21T04:14:04.045Z,83.27
2018-11-21T04:16:31.504Z,82.78
2018-11-21T04:18:58.984Z,82.62
2018-11-21T04:21:26.397Z,82.70
2018-11-21T04:23:53.886Z,82.93
2018-11-21T04:26:21.325Z,82.48
2018-11-21T04:28:48.980Z,81.87
2018-11-21T04:31:17.053Z,81.85
2018-11-21T04:33:44.678Z,81.88
2018-11-21T04:36:12.792Z,81.21
2018-11-21T04:38:40.244Z,81.27
2018-11-21T04:41:07.666Z,81.02
2018-11-21T04:43:35.364Z,81.31
2018-11-21T04:46:03.744Z,80.99
2018-11-21T04:48:31.513Z,81.31
2018-11-21T04:50:58.929Z,81.80
2018-11-21T04:53:28.054Z,81.36
2018-11-21T04:55:54.325Z,81.21
2018-11-21T04:58:21.805Z,81.07
2018-11-21T05:00:49.326Z,81.39
2018-11-21T05:03:16.753Z,80.77
2018-11-21T05:05:44.264Z,80.74
2018-11-21T05:08:11.685Z,80.88
2018-11-21T05:10:39.245Z,81.75
2018-11-21T05:13:06.704Z,81.17
2018-11-21T05:15:34.312Z,80.98
2018-11-21T05:18:01.719Z,81.30
2018-11-21T05:20:29.976Z,81.86
2018-11-21T05:22:57.404Z,81.87
2018-11-21T05:25:24.884Z,81.41
2018-11-21T05:27:52.353Z,81.53
2018-11-21T05:30:19.865Z,81.70
2018-11-21T05:32:47.385Z,81.87
2018-11-21T05:35:14.953Z,80.86
2018-11-21T05:37:42.433Z,80.51
2018-11-21T05:40:10.604Z,81.23
2018-11-21T05:42:38.172Z,81.18
2018-11-21T05:45:06.546Z,80.93
2018-11-21T05:47:34.045Z,80.99
2018-11-21T05:50:01.445Z,81.30
2018-11-21T05:52:29.355Z,80.85
2018-11-21T05:54:57.795Z,81.34
2018-11-21T05:57:25.272Z,81.46
2018-11-21T05:59:52.745Z,81.37
2018-11-21T06:02:20.205Z,81.07
2018-11-21T06:04:47.647Z,80.75
2018-11-21T06:07:15.145Z,81.25
2018-11-21T06:09:42.645Z,81.08
2018-11-21T06:12:10.285Z,80.80
2018-11-21T06:14:37.755Z,81.15
2018-11-21T06:17:05.665Z,81.14
2018-11-21T06:19:33.305Z,81.73
2018-11-21T06:22:00.785Z,81.62
2018-11-21T06:24:28.225Z,81.39
2018-11-21T06:26:59.852Z,81.95
2018-11-21T06:29:27.424Z,81.96
2018-11-21T06:31:54.937Z,81.84
2018-11-21T06:34:22.426Z,81.08
2018-11-21T06:36:49.965Z,81.67
2018-11-21T06:39:18.225Z,81.71
2018-11-21T06:41:45.485Z,81.26
2018-11-21T06:44:13.105Z,81.59
2018-11-21T06:47:03.317Z,81.67
2018-11-21T06:49:29.329Z,81.45
2018-11-21T06:52:05.777Z,81.37
2018-11-21T06:54:33.405Z,80.97
2018-11-21T06:57:08.405Z,81.09
2018-11-21T06:59:46.325Z,81.08
2018-11-21T07:02:13.880Z,81.65
2018-11-21T07:04:41.605Z,81.70
2018-11-21T07:07:24.544Z,81.99
2018-11-21T07:09:52.345Z,82.08
2018-11-21T07:15:47.585Z,82.92
2018-11-21T07:22:02.730Z,84.44
2018-11-21T07:24:30.665Z,84.17
2018-11-21T07:26:58.066Z,83.95
2018-11-21T07:29:25.750Z,83.70
2018-11-21T07:31:53.193Z,83.76
2018-11-21T07:34:21.629Z,83.93
2018-11-21T07:36:49.705Z,83.66
2018-11-21T07:39:17.333Z,83.76
2018-11-21T07:41:45.045Z,84.19
2018-11-21T07:44:12.585Z,83.85
2018-11-21T07:46:40.065Z,83.80
2018-11-21T07:49:07.524Z,83.91
2018-11-21T07:51:35.293Z,83.81
2018-11-21T07:54:02.913Z,83.79
2018-11-21T07:57:12.365Z,83.62
2018-11-21T08:00:00.149Z,84.11
2018-11-21T08:02:32.693Z,84.44
2018-11-21T08:05:05.004Z,83.96
2018-11-21T08:07:41.097Z,84.19
2018-11-21T08:10:30.885Z,84.08
2018-11-21T08:13:16.300Z,84.27
2018-11-21T08:16:13.185Z,83.58
2018-11-21T08:18:51.624Z,83.36
2018-11-21T08:21:47.152Z,83.20
2018-11-21T08:24:37.185Z,83.50
2018-11-21T08:27:30.108Z,82.97
2018-11-21T08:29:57.644Z,82.96
2018-11-21T08:32:25.125Z,83.68
2018-11-21T08:34:52.566Z,83.41
2018-11-21T08:37:20.025Z,83.01
2018-11-21T08:39:47.545Z,83.09
2018-11-21T08:42:16.625Z,83.04
2018-11-21T08:44:44.025Z,82.41
2018-11-21T08:47:11.585Z,82.69
2018-11-21T08:49:39.004Z,81.79
2018-11-21T08:52:06.669Z,82.08
2018-11-21T08:54:34.165Z,82.63
2018-11-21T08:57:01.627Z,81.85
2018-11-21T08:59:34.925Z,82.20
2018-11-21T09:02:02.385Z,80.99
2018-11-21T09:04:29.825Z,81.38
2018-11-21T09:06:57.445Z,81.17
2018-11-21T09:09:24.837Z,82.12
2018-11-21T09:11:52.277Z,81.21
2018-11-21T09:14:19.785Z,81.90
2018-11-21T09:16:47.284Z,81.91
2018-11-21T09:19:14.725Z,81.54
2018-11-21T09:21:42.144Z,81.98
2018-11-21T09:24:09.635Z,82.41
2018-11-21T09:26:37.089Z,82.18
2018-11-21T09:29:04.837Z,82.13
2018-11-21T09:31:32.344Z,82.85
2018-11-21T09:33:59.785Z,83.34
2018-11-21T09:36:27.308Z,82.63
2018-11-21T09:38:54.784Z,83.06
2018-11-21T09:41:22.285Z,82.75
2018-11-21T09:43:52.635Z,82.75
2018-11-21T09:46:20.153Z,82.08
2018-11-21T09:48:47.652Z,81.78
2018-11-21T09:51:15.165Z,82.40
2018-11-21T09:53:42.608Z,82.05
2018-11-21T09:56:10.045Z,81.65
2018-11-21T09:58:37.563Z,81.34
2018-11-21T10:01:41.785Z,81.67
2018-11-21T10:04:09.205Z,81.58
2018-11-21T10:06:38.747Z,81.53
2018-11-21T10:09:16.017Z,81.14
2018-11-21T10:11:43.508Z,81.15
2018-11-21T10:14:10.977Z,80.70
2018-11-21T10:16:38.544Z,80.89
2018-11-21T10:19:06.269Z,80.56
2018-11-21T10:21:35.204Z,81.25
2018-11-21T10:24:02.904Z,80.83
2018-11-21T10:26:30.696Z,81.18
2018-11-21T10:28:58.213Z,80.76
2018-11-21T10:31:25.872Z,81.02
2018-11-21T10:33:53.344Z,81.13
2018-11-21T10:36:20.928Z,80.22
2018-11-21T10:38:48.645Z,80.26
2018-11-21T10:41:16.192Z,80.38
2018-11-21T10:43:49.992Z,79.48
2018-11-21T10:46:17.604Z,79.76
2018-11-21T10:48:45.644Z,79.71
2018-11-21T10:51:14.530Z,79.88
2018-11-21T10:53:41.104Z,79.87
2018-11-21T10:56:08.548Z,80.27
2018-11-21T10:58:36.096Z,79.44
2018-11-21T11:01:21.685Z,79.21
2018-11-21T11:03:58.137Z,79.30
2018-11-21T11:06:43.864Z,79.62
2018-11-21T11:09:40.813Z,79.54
2018-11-21T11:12:43.267Z,79.59
2018-11-21T11:15:26.888Z,80.40
2018-11-21T11:18:12.851Z,79.40
2018-11-21T11:21:01.156Z,79.45
2018-11-21T11:23:51.580Z,79.72
2018-11-21T11:26:38.695Z,80.17
2018-11-21T11:29:25.817Z,79.60
2018-11-21T11:32:22.123Z,80.23
2018-11-21T11:35:10.483Z,80.46
2018-11-21T11:38:03.489Z,79.84
2018-11-21T11:40:54.416Z,80.00
2018-11-21T11:43:53.324Z,80.40
2018-11-21T11:46:38.763Z,80.09
2018-11-21T11:49:24.844Z,79.70
2018-11-21T11:52:15.125Z,79.76
2018-11-21T11:55:02.214Z,80.54
2018-11-21T11:58:01.332Z,80.10
2018-11-21T12:00:40.504Z,80.36
2018-11-21T12:03:26.155Z,80.40
2018-11-21T12:06:12.624Z,80.10
2018-11-21T12:09:05.804Z,80.03
2018-11-21T12:11:51.760Z,80.21
2018-11-21T12:14:37.292Z,81.14
2018-11-21T12:17:22.764Z,80.27
2018-11-21T12:20:23.925Z,80.05
2018-11-21T12:23:20.304Z,80.39
2018-11-21T12:26:16.696Z,80.59
2018-11-21T12:29:22.124Z,80.46
2018-11-21T12:32:08.197Z,80.28
2018-11-21T12:35:13.306Z,80.94
2018-11-21T12:37:57.105Z,81.08
2018-11-21T12:40:53.051Z,81.25
2018-11-21T12:43:38.592Z,81.62
2018-11-21T12:46:25.364Z,81.63
2018-11-21T12:49:12.304Z,81.21
2018-11-21T12:52:05.284Z,81.52
2018-11-21T12:54:52.334Z,82.07
2018-11-21T12:57:45.493Z,81.46
2018-11-21T13:00:31.325Z,82.13
2018-11-21T13:03:03.864Z,81.59
2018-11-21T13:05:49.372Z,81.70
2018-11-21T13:08:34.992Z,81.75
2018-11-21T13:11:22.012Z,81.41
2018-11-21T13:14:07.567Z,81.62
2018-11-21T13:17:00.473Z,81.62
2018-11-21T13:19:45.992Z,81.44
2018-11-21T13:22:44.971Z,82.36
2018-11-21T13:25:30.425Z,81.93
2018-11-21T13:28:20.035Z,82.25
2018-11-21T13:31:06.997Z,82.39
2018-11-21T13:33:53.984Z,82.50
2018-11-21T13:36:49.797Z,82.43
2018-11-21T13:39:55.285Z,82.46
2018-11-21T13:42:30.439Z,82.72
2018-11-21T13:45:19.305Z,82.38
2018-11-21T13:48:21.305Z,81.99
2018-11-21T13:51:05.875Z,82.75
2018-11-21T13:53:58.864Z,82.22
2018-11-21T13:56:26.264Z,82.57
2018-11-21T13:58:53.844Z,82.34
2018-11-21T14:01:21.744Z,82.21
2018-11-21T14:03:49.424Z,82.51
2018-11-21T14:06:16.904Z,82.45
2018-11-21T14:08:44.572Z,82.83
2018-11-21T14:11:12.226Z,83.48
2018-11-21T14:13:39.869Z,82.90
2018-11-21T14:16:07.385Z,83.40
2018-11-21T14:18:34.836Z,83.21
2018-11-21T14:21:02.472Z,83.10
2018-11-21T14:23:30.025Z,83.10
2018-11-21T14:25:57.525Z,82.80
2018-11-21T14:28:25.024Z,82.64
2018-11-21T14:30:52.485Z,83.09
2018-11-21T14:33:20.085Z,82.86
2018-11-21T14:35:47.604Z,83.21
2018-11-21T14:38:15.337Z,83.50
2018-11-21T14:40:42.974Z,83.30
2018-11-21T14:43:10.496Z,83.63
2018-11-21T14:45:38.096Z,83.44
2018-11-21T14:48:05.828Z,83.19
2018-11-21T14:50:39.113Z,83.48
2018-11-21T14:53:02.132Z,83.59
2018-11-21T14:55:29.663Z,83.44
2018-11-21T14:57:57.116Z,83.58
2018-11-21T15:00:25.124Z,83.89
2018-11-21T15:02:52.605Z,83.84
2018-11-21T15:05:20.169Z,83.41
2018-11-21T15:07:47.944Z,83.59
2018-11-21T15:10:15.615Z,83.64
2018-11-21T15:12:43.144Z,83.91
2018-11-21T15:15:13.704Z,83.85
2018-11-21T15:17:41.534Z,83.79
2018-11-21T15:20:11.204Z,83.40
2018-11-21T15:22:38.884Z,83.52
2018-11-21T15:25:11.766Z,83.31
2018-11-21T15:27:39.657Z,83.11
2018-11-21T15:30:16.275Z,82.93
2018-11-21T15:32:44.188Z,82.86
2018-11-21T15:35:11.744Z,83.49
2018-11-21T15:37:40.106Z,83.40
2018-11-21T15:40:13.352Z,83.29
2018-11-21T15:42:41.012Z,83.07
2018-11-21T15:45:10.965Z,83.52
2018-11-21T15:47:38.564Z,83.20
2018-11-21T15:50:08.916Z,83.10
2018-11-21T15:52:39.904Z,83.19
2018-11-21T15:55:08.216Z,82.79
2018-11-21T15:57:37.245Z,82.72
2018-11-21T16:00:20.833Z,83.04
2018-11-21T16:02:49.532Z,82.90
2018-11-21T16:05:17.876Z,82.93
2018-11-21T16:08:07.816Z,83.18
2018-11-21T16:10:38.625Z,83.01
2018-11-21T16:13:06.763Z,83.68
2018-11-21T16:15:40.106Z,83.32
2018-11-21T16:18:08.104Z,83.38
2018-11-21T16:20:43.835Z,83.20
2018-11-21T16:23:11.457Z,83.32
2018-11-21T16:25:39.151Z,83.26
2018-11-21T16:28:08.016Z,83.28
2018-11-21T16:30:37.659Z,83.15
2018-11-21T16:33:05.899Z,83.15
2018-11-21T16:35:33.538Z,83.33
2018-11-21T16:38:01.357Z,83.60
2018-11-21T16:40:30.265Z,83.42
2018-11-21T16:42:59.004Z,83.59
2018-11-21T16:45:28.513Z,83.24
2018-11-21T16:47:56.064Z,83.46
2018-11-21T16:50:23.485Z,83.59
2018-11-21T16:52:51.225Z,83.40
2018-11-21T16:55:20.489Z,83.80
2018-11-21T16:57:48.624Z,83.37
2018-11-21T17:00:18.093Z,83.53
2018-11-21T17:02:45.844Z,83.46
2018-11-21T17:05:14.885Z,83.72
2018-11-21T17:07:42.792Z,83.49
2018-11-21T17:10:12.105Z,83.49
2018-11-21T17:12:39.784Z,83.62
2018-11-21T17:15:09.704Z,83.54
2018-11-21T17:17:37.081Z,83.73
2018-11-21T17:20:06.244Z,83.44
2018-11-21T17:22:33.664Z,83.65
2018-11-21T17:25:01.147Z,83.79
2018-11-21T17:27:28.584Z,83.94
2018-11-21T17:29:56.017Z,83.86
2018-11-21T17:32:23.464Z,84.09
2018-11-21T17:34:50.967Z,83.81
2018-11-21T17:37:18.440Z,83.75
2018-11-21T17:39:46.052Z,83.90
2018-11-21T17:42:13.952Z,84.04
2018-11-21T17:44:41.684Z,83.63
2018-11-21T17:47:09.165Z,83.95
2018-11-21T17:49:36.852Z,83.70
2018-11-21T17:52:04.640Z,83.57
2018-11-21T17:54:32.192Z,84.19
2018-11-21T17:56:59.665Z,83.43
2018-11-21T17:59:27.196Z,83.47
2018-11-21T18:01:54.725Z,83.47
2018-11-21T18:04:22.186Z,83.51
2018-11-21T18:06:49.564Z,83.63
2018-11-21T18:09:20.232Z,83.99
2018-11-21T18:11:47.644Z,84.03
2018-11-21T18:14:15.064Z,83.83
2018-11-21T18:16:42.692Z,83.94
2018-11-21T18:19:10.144Z,84.15
2018-11-21T18:21:37.831Z,84.00
2018-11-21T18:24:05.374Z,83.99
2018-11-21T18:26:32.904Z,84.15
2018-11-21T18:29:00.364Z,84.42
2018-11-21T18:31:27.917Z,84.47
2018-11-21T18:33:55.444Z,84.25
2018-11-21T18:36:22.972Z,84.07
2018-11-21T18:38:50.391Z,84.12
2018-11-21T18:41:18.124Z,84.22
2018-11-21T18:43:45.632Z,84.18
2018-11-21T18:46:13.145Z,84.21
2018-11-21T18:48:40.684Z,84.29
2018-11-21T18:51:08.205Z,84.20
2018-11-21T18:53:35.665Z,84.34
2018-11-21T18:56:22.604Z,84.79
2018-11-21T18:59:30.556Z,84.42
2018-11-21T19:01:58.167Z,84.82
2018-11-21T19:04:25.566Z,84.75
2018-11-21T19:06:53.084Z,84.69
2018-11-21T19:09:20.592Z,84.75
2018-11-21T19:11:48.244Z,84.85
2018-11-21T19:14:15.784Z,84.87
2018-11-21T19:16:43.332Z,84.89
2018-11-21T19:19:10.837Z,84.85
2018-11-21T19:21:38.364Z,85.14
2018-11-21T19:24:05.984Z,84.87
2018-11-21T19:26:33.655Z,84.95
2018-11-21T19:29:01.545Z,85.12
2018-11-21T19:31:29.724Z,84.85
2018-11-21T19:33:56.544Z,84.89
2018-11-21T19:36:24.144Z,85.24
2018-11-21T19:38:51.684Z,85.14
2018-11-21T19:41:19.285Z,84.94
2018-11-21T19:43:46.852Z,84.99
2018-11-21T19:46:14.324Z,84.98
2018-11-21T19:48:41.965Z,84.85
2018-11-21T19:51:10.093Z,85.14
2018-11-21T19:53:37.625Z,85.33
2018-11-21T19:56:05.153Z,85.45
2018-11-21T19:58:32.632Z,85.38
2018-11-21T20:01:00.204Z,85.10
2018-11-21T20:03:27.852Z,85.22
2018-11-21T20:05:55.333Z,85.16
2018-11-21T20:08:22.872Z,85.14
2018-11-21T20:10:51.092Z,85.24
2018-11-21T20:13:18.664Z,85.34
2018-11-21T20:15:46.144Z,85.31
2018-11-21T20:18:13.672Z,85.38
2018-11-21T20:20:41.145Z,85.28
2018-11-21T20:23:11.144Z,85.38
2018-11-21T20:25:38.672Z,85.59
2018-11-21T20:28:06.244Z,85.54
2018-11-21T20:30:35.604Z,85.56
2018-11-21T20:33:03.144Z,85.34
2018-11-21T20:35:30.663Z,85.78
2018-11-21T20:37:58.184Z,85.54
2018-11-21T20:40:27.499Z,85.49
2018-11-21T20:42:55.044Z,85.51
2018-11-21T20:45:23.924Z,85.51
2018-11-21T20:47:56.064Z,85.65
2018-11-21T20:50:23.583Z,85.61
2018-11-21T20:52:51.504Z,85.81
2018-11-21T20:55:20.732Z,85.71
2018-11-21T20:57:48.153Z,86.07
2018-11-21T21:00:17.285Z,85.71
2018-11-21T21:02:46.730Z,85.81
2018-11-21T21:05:17.432Z,86.04
2018-11-21T21:08:03.552Z,85.98
2018-11-21T21:10:33.613Z,86.22
2018-11-21T21:13:01.124Z,86.03
2018-11-21T21:15:28.713Z,86.11
2018-11-21T21:17:56.344Z,86.28
2018-11-21T21:20:25.244Z,86.02
2018-11-21T21:22:54.585Z,86.09
2018-11-21T21:25:23.644Z,86.12
2018-11-21T21:27:51.164Z,85.94
2018-11-21T21:30:36.984Z,86.01
2018-11-21T21:33:05.236Z,85.80
2018-11-21T21:35:33.632Z,85.77
2018-11-21T21:38:01.165Z,85.93
2018-11-21T21:40:29.133Z,85.65
2018-11-21T21:42:56.887Z,85.63
2018-11-21T21:45:25.747Z,85.30
2018-11-21T21:47:53.255Z,85.58
2018-11-21T21:50:22.504Z,85.53
2018-11-21T21:52:50.204Z,85.78
2018-11-21T21:55:19.044Z,85.44
2018-11-21T21:57:46.484Z,85.25
2018-11-21T22:00:18.864Z,85.39
2018-11-21T22:02:46.786Z,85.59
2018-11-21T22:05:14.455Z,85.43
2018-11-21T22:07:42.233Z,85.61
2018-11-21T22:10:11.732Z,85.50
2018-11-21T22:12:39.304Z,85.70
2018-11-21T22:15:24.373Z,85.60
2018-11-21T22:17:52.444Z,85.59
2018-11-21T22:20:22.304Z,85.49
2018-11-21T22:22:50.392Z,85.70
2018-11-21T22:25:18.144Z,85.44
2018-11-21T22:27:45.583Z,85.51
2018-11-21T22:30:14.144Z,85.14
2018-11-21T22:32:42.687Z,85.30
2018-11-21T22:35:11.172Z,85.39
2018-11-21T22:37:38.672Z,85.55
2018-11-21T22:40:08.625Z,85.82
2018-11-21T22:42:36.127Z,85.76
2018-11-21T22:45:03.878Z,85.37
2018-11-21T22:47:31.572Z,85.30
2018-11-21T22:49:59.276Z,85.63
2018-11-21T22:52:27.025Z,85.35
2018-11-21T22:54:54.852Z,85.37
2018-11-21T22:57:22.612Z,85.55
2018-11-21T22:59:50.404Z,85.31
2018-11-21T23:02:18.844Z,85.45
2018-11-21T23:04:46.445Z,85.62
2018-11-21T23:07:14.204Z,85.76
2018-11-21T23:09:41.916Z,85.65
2018-11-21T23:12:09.679Z,85.83
2018-11-21T23:14:37.392Z,85.70
2018-11-21T23:17:05.128Z,85.63
2018-11-21T23:19:32.805Z,85.75
2018-11-21T23:22:00.625Z,85.67
2018-11-21T23:24:28.304Z,85.72
2018-11-21T23:26:56.104Z,85.64
2018-11-21T23:29:23.833Z,85.70
2018-11-21T23:31:51.593Z,85.93
2018-11-21T23:34:19.296Z,85.93
2018-11-21T23:36:47.026Z,85.52
2018-11-21T23:39:14.533Z,85.61
2018-11-21T23:41:42.252Z,85.41
2018-11-21T23:44:09.752Z,85.47
2018-11-21T23:46:37.293Z,85.50
2018-11-21T23:49:04.848Z,85.29
2018-11-21T23:51:32.304Z,85.42
2018-11-21T23:53:59.924Z,86.08
2018-11-21T23:56:27.352Z,85.66
2018-11-21T23:58:54.824Z,85.62
